Aérodrome :
LOGIN :

S'inscrire | Disclaimer

   EN    FR    IT 

 










Légende :    VFR   VFR Marginal   IFR   IFR Intensif   IFR Très Intensif
Visi : 
Plafond : 
>= 8 km
>= 3000ft
5 à 8 km
1000 à 3000 ft
1500m à 5 km
500 à 1000 ft
800 à 1500m
200 à 500 ft
< 800m
< 200 ft
Symboles :   Orages  Brouillard  Fortes neiges  Fortes précipitations  Vent > 20 kt
SIGMETs :   Divers  Orages  Givrage  Turbulence  Onde Orograph.  Cendres Volcan.






- Altitude de l'aérodrome : 112 ft
- Code IATA : KIR


EIKY - Kerry Farranfore

DERNIER METAR :
  • 211000Z 20004KT 140V230 9999 FEW015 16/12 Q1010

METARs EXPIRÉS :
  • 210930Z 21003KT 9999 FEW024 BKN033 15/13 Q1011
  • 210900Z 21004KT 140V240 9999 FEW014 BKN024 OVC029 14/13 Q1011
  • 210830Z 20005KT 170V230 9999 FEW014 OVC022 14/12 Q1011
  • 210800Z 24005KT 9999 SCT010 BKN023 OVC033 14/12 Q1011

TAF TAF EIKY
Valide du 21 à 09h jusqu'au 21 à 18h UTC


210800Z 2109/2118 22010KT 9999 SCT010 BKN025
BECMG 2109/2111 19011KT
TEMPO 2109/2113 4000 -RA BKN012
BECMG 2113/2115 4000 -RADZ BKN010
TEMPO 2114/2118 2500 BKN006
BECMG 2116/2118 23010KT



MET'MAP, la Météo Aéronautique d'un coup d'oeil ! - Copyright ORBIFLY Décembre 2007 - Disclaimer

ORBIFLY MET'MAP TEAM :

Programmation & Développement : Alexandra Zaïnal
Sur une idée originale de : Baudouin d'Aumeries
Soutien technique & logistique : Manuel Goepfert
Assistance : Marc-Olivier Méhu




SOURCES & CREDITS :

   NOAA